This is the latest recevied weather packets stored in our database for station/object AG1T-20. If no packets are shown the sender has not sent any weather packets the latest 10 day(s).
| Time | Temp. | Humidity | Pressure | Rain* | Wind** | Luminosity | Snow |
|---|---|---|---|---|---|---|---|
| 1788079804 | 13.89° C | 89% | 1018.5 hPa | 0 mm | - | 0 W/m² | - |
| 1788079204 | 14.44° C | 88% | 1018.5 hPa | 0 mm | - | 0 W/m² | - |
| 1788078605 | 14.44° C | 89% | 1018.5 hPa | 0 mm | - | 0 W/m² | - |
| 1788078004 | 14.44° C | 89% | 1018.5 hPa | 0.76 mm | - | 0 W/m² | - |
| 1788077405 | 15° C | 87% | 1018.5 hPa | 4.06 mm | - | 0 W/m² | - |
| 1788076805 | 14.44° C | 86% | 1018.5 hPa | 5.33 mm | - | 0 W/m² | - |
| 1788076205 | 15° C | 81% | 1020.3 hPa | 5.33 mm | - | 0 W/m² | - |
| 1788075604 | 15.56° C | 76% | 1020.3 hPa | 5.33 mm | - | 0 W/m² | - |
| 1788075005 | 15° C | 81% | 1020.3 hPa | 5.33 mm | - | 0 W/m² | - |
| 1788074404 | 13.89° C | 91% | 1020.3 hPa | 4.57 mm | - | 0 W/m² | - |
| 1788073805 | 13.89° C | 91% | 1020.3 hPa | 1.27 mm | - | 0 W/m² | - |
| 1788073204 | 15.56° C | 84% | 1020.3 hPa | 0 mm | - | 0 W/m² | - |
| 1788072604 | 16.11° C | 81% | 1019 hPa | 0 mm | - | 0 W/m² | - |
| 1788072004 | 16.11° C | 79% | 1019 hPa | 0 mm | - | 0 W/m² | - |
| 1788071404 | 16.11° C | 79% | 1019 hPa | 0 mm | - | 0 W/m² | - |
| 1788070804 | 15.56° C | 78% | 1019 hPa | 0 mm | - | 0 W/m² | - |
| 1788070204 | 15.56° C | 76% | 1019 hPa | 0 mm | - | 0 W/m² | - |
| 1788069604 | 15.56° C | 75% | 1019 hPa | 0 mm | - | 0 W/m² | - |
| 1788069005 | 15.56° C | 77% | 1018.8 hPa | 0 mm | - | 0 W/m² | - |
| 1788068404 | 15.56° C | 79% | 1018.8 hPa | 0 mm | - | 0 W/m² | - |
| 1788067804 | 15.56° C | 76% | 1018.8 hPa | 0 mm | - | 0 W/m² | - |
| 1788067204 | 15.56° C | 78% | 1018.8 hPa | 0 mm | - | 0 W/m² | - |
| 1788066604 | 16.11° C | 76% | 1018.8 hPa | 0 mm | - | 0 W/m² | - |
| 1788066004 | 16.11° C | 77% | 1018.8 hPa | 0 mm | - | 0 W/m² | - |
| 1788065405 | 16.11° C | 81% | 1017.9 hPa | 0 mm | - | 0 W/m² | - |
* Rain latest hour (hover to see other rain measurements)
** Current wind speed in m/s (hover to see current wind gust speed)